sensor_id;sensor_type;location;lat;lon;timestamp;pressure;altitude;pressure_sealevel;temperature;humidity
23229;BME280;11783;50.350;6.576;2023-02-02T00:01:53;96710.88;;;4.49;100.00
23229;BME280;11783;50.350;6.576;2023-02-02T00:04:27;96705.81;;;4.47;100.00
23229;BME280;11783;50.350;6.576;2023-02-02T00:06:54;96705.44;;;4.50;100.00
23229;BME280;11783;50.350;6.576;2023-02-02T00:09:22;96704.00;;;4.48;100.00
23229;BME280;11783;50.350;6.576;2023-02-02T00:11:48;96708.06;;;4.50;100.00
23229;BME280;11783;50.350;6.576;2023-02-02T00:14:16;96707.19;;;4.43;100.00
23229;BME280;11783;50.350;6.576;2023-02-02T00:16:44;96715.88;;;4.44;100.00
23229;BME280;11783;50.350;6.576;2023-02-02T00:19:11;96704.00;;;4.48;100.00
23229;BME280;11783;50.350;6.576;2023-02-02T00:21:37;96707.63;;;4.47;100.00
23229;BME280;11783;50.350;6.576;2023-02-02T00:24:05;96712.50;;;4.50;100.00
23229;BME280;11783;50.350;6.576;2023-02-02T00:26:30;96709.25;;;4.48;100.00
23229;BME280;11783;50.350;6.576;2023-02-02T00:28:56;96712.69;;;4.48;100.00
23229;BME280;11783;50.350;6.576;2023-02-02T00:31:22;96711.69;;;4.49;100.00
23229;BME280;11783;50.350;6.576;2023-02-02T00:33:50;96716.19;;;4.55;100.00
23229;BME280;11783;50.350;6.576;2023-02-02T00:36:17;96718.00;;;4.55;100.00
23229;BME280;11783;50.350;6.576;2023-02-02T00:38:42;96723.69;;;4.59;100.00
23229;BME280;11783;50.350;6.576;2023-02-02T00:41:08;96717.63;;;4.58;100.00
23229;BME280;11783;50.350;6.576;2023-02-02T00:43:33;96718.00;;;4.55;100.00
23229;BME280;11783;50.350;6.576;2023-02-02T00:45:59;96716.19;;;4.55;100.00
23229;BME280;11783;50.350;6.576;2023-02-02T00:48:24;96718.41;;;4.59;100.00
23229;BME280;11783;50.350;6.576;2023-02-02T00:50:53;96708.72;;;4.59;100.00
23229;BME280;11783;50.350;6.576;2023-02-02T00:53:19;96700.00;;;4.59;100.00
23229;BME280;11783;50.350;6.576;2023-02-02T00:55:45;96704.03;;;4.54;100.00
23229;BME280;11783;50.350;6.576;2023-02-02T00:58:10;96698.38;;;4.57;100.00
23229;BME280;11783;50.350;6.576;2023-02-02T01:00:35;96703.06;;;4.62;100.00
23229;BME280;11783;50.350;6.576;2023-02-02T01:03:02;96701.00;;;4.57;100.00
23229;BME280;11783;50.350;6.576;2023-02-02T01:05:32;96700.59;;;4.61;100.00
23229;BME280;11783;50.350;6.576;2023-02-02T01:07:57;96698.78;;;4.61;100.00
23229;BME280;11783;50.350;6.576;2023-02-02T01:10:23;96701.81;;;4.58;100.00
23229;BME280;11783;50.350;6.576;2023-02-02T01:12:51;96699.56;;;4.55;100.00
23229;BME280;11783;50.350;6.576;2023-02-02T01:15:17;96704.44;;;4.58;100.00
23229;BME280;11783;50.350;6.576;2023-02-02T01:17:42;96713.16;;;4.59;100.00
23229;BME280;11783;50.350;6.576;2023-02-02T01:20:10;96708.09;;;4.57;100.00
23229;BME280;11783;50.350;6.576;2023-02-02T01:22:42;96711.13;;;4.61;100.00
23229;BME280;11783;50.350;6.576;2023-02-02T01:25:10;96707.09;;;4.58;100.00
23229;BME280;11783;50.350;6.576;2023-02-02T01:27:35;96708.47;;;4.54;100.00
23229;BME280;11783;50.350;6.576;2023-02-02T01:30:04;96715.38;;;4.55;100.00
23229;BME280;11783;50.350;6.576;2023-02-02T01:32:30;96713.97;;;4.59;100.00
23229;BME280;11783;50.350;6.576;2023-02-02T01:34:58;96711.34;;;4.59;100.00
23229;BME280;11783;50.350;6.576;2023-02-02T01:37:23;96710.53;;;4.59;100.00
23229;BME280;11783;50.350;6.576;2023-02-02T01:39:49;96708.72;;;4.59;100.00
23229;BME280;11783;50.350;6.576;2023-02-02T01:42:21;96707.09;;;4.58;100.00
23229;BME280;11783;50.350;6.576;2023-02-02T01:47:46;96706.69;;;4.61;100.00
23229;BME280;11783;50.350;6.576;2023-02-02T01:50:14;96712.97;;;4.60;100.00
23229;BME280;11783;50.350;6.576;2023-02-02T01:52:42;96707.09;;;4.58;100.00
23229;BME280;11783;50.350;6.576;2023-02-02T01:55:11;96711.31;;;4.52;100.00
23229;BME280;11783;50.350;6.576;2023-02-02T02:00:30;96715.75;;;4.52;100.00
23229;BME280;11783;50.350;6.576;2023-02-02T02:03:07;96724.06;;;4.55;100.00
23229;BME280;11783;50.350;6.576;2023-02-02T02:05:41;96718.81;;;4.55;100.00
23229;BME280;11783;50.350;6.576;2023-02-02T02:08:16;96722.03;;;4.51;100.00
23229;BME280;11783;50.350;6.576;2023-02-02T02:10:42;96720.41;;;4.50;100.00
23229;BME280;11783;50.350;6.576;2023-02-02T02:13:07;96714.94;;;4.51;100.00
23229;BME280;11783;50.350;6.576;2023-02-02T02:15:44;96713.94;;;4.52;100.00
23229;BME280;11783;50.350;6.576;2023-02-02T02:18:43;96715.13;;;4.50;100.00
23229;BME280;11783;50.350;6.576;2023-02-02T02:30:11;96721.78;;;4.46;100.00
23229;BME280;11783;50.350;6.576;2023-02-02T02:32:51;96728.25;;;4.43;100.00
23229;BME280;11783;50.350;6.576;2023-02-02T02:35:33;96725.41;;;4.45;100.00
23229;BME280;11783;50.350;6.576;2023-02-02T02:40:33;96724.78;;;4.43;100.00
23229;BME280;11783;50.350;6.576;2023-02-02T02:43:04;96724.41;;;4.46;100.00
23229;BME280;11783;50.350;6.576;2023-02-02T02:45:32;96719.34;;;4.44;100.00
23229;BME280;11783;50.350;6.576;2023-02-02T02:47:58;96723.59;;;4.45;100.00
23229;BME280;11783;50.350;6.576;2023-02-02T02:50:49;96717.34;;;4.46;100.00
23229;BME280;11783;50.350;6.576;2023-02-02T02:53:16;96718.31;;;4.45;100.00
23229;BME280;11783;50.350;6.576;2023-02-02T02:58:35;96714.53;;;4.48;100.00
23229;BME280;11783;50.350;6.576;2023-02-02T03:01:15;96714.13;;;4.51;100.00
23229;BME280;11783;50.350;6.576;2023-02-02T03:09:03;96723.84;;;4.50;100.00
23229;BME280;11783;50.350;6.576;2023-02-02T03:11:30;96731.69;;;4.44;100.00
23229;BME280;11783;50.350;6.576;2023-02-02T03:13:55;96718.97;;;4.47;100.00
23229;BME280;11783;50.350;6.576;2023-02-02T03:16:21;96719.19;;;4.52;100.00
23229;BME280;11783;50.350;6.576;2023-02-02T03:18:46;96709.09;;;4.56;100.00
23229;BME280;11783;50.350;6.576;2023-02-02T03:21:14;96716.56;;;4.52;100.00
23229;BME280;11783;50.350;6.576;2023-02-02T03:23:40;96720.25;;;4.58;100.00
23229;BME280;11783;50.350;6.576;2023-02-02T03:26:08;96716.56;;;4.52;100.00
23229;BME280;11783;50.350;6.576;2023-02-02T03:28:34;96716.97;;;4.49;100.00
23229;BME280;11783;50.350;6.576;2023-02-02T03:31:02;96702.59;;;4.52;100.00
23229;BME280;11783;50.350;6.576;2023-02-02T03:33:34;96703.59;;;4.51;100.00
23229;BME280;11783;50.350;6.576;2023-02-02T03:36:01;96714.94;;;4.51;100.00
23229;BME280;11783;50.350;6.576;2023-02-02T03:38:26;96714.13;;;4.51;100.00
23229;BME280;11783;50.350;6.576;2023-02-02T03:40:51;96716.34;;;4.47;100.00
23229;BME280;11783;50.350;6.576;2023-02-02T03:43:21;96721.22;;;4.50;100.00
23229;BME280;11783;50.350;6.576;2023-02-02T03:45:47;96734.00;;;4.53;100.00
23229;BME280;11783;50.350;6.576;2023-02-02T03:48:21;96732.59;;;4.57;100.00
23229;BME280;11783;50.350;6.576;2023-02-02T03:50:50;96735.22;;;4.57;100.00
23229;BME280;11783;50.350;6.576;2023-02-02T03:53:18;96741.50;;;4.56;100.00
23229;BME280;11783;50.350;6.576;2023-02-02T03:55:46;96742.69;;;4.54;100.00
23229;BME280;11783;50.350;6.576;2023-02-02T03:58:12;96747.16;;;4.53;100.00
23229;BME280;11783;50.350;6.576;2023-02-02T04:00:37;96741.88;;;4.53;100.00
23229;BME280;11783;50.350;6.576;2023-02-02T04:03:05;96746.34;;;4.53;100.00
23229;BME280;11783;50.350;6.576;2023-02-02T04:05:31;96748.97;;;4.53;100.00
23229;BME280;11783;50.350;6.576;2023-02-02T04:07:56;96742.69;;;4.54;100.00
23229;BME280;11783;50.350;6.576;2023-02-02T04:10:22;96738.88;;;4.56;100.00
23229;BME280;11783;50.350;6.576;2023-02-02T04:12:47;96743.69;;;4.53;100.00
23229;BME280;11783;50.350;6.576;2023-02-02T04:15:15;96736.81;;;4.52;100.00
23229;BME280;11783;50.350;6.576;2023-02-02T04:17:41;96738.25;;;4.54;100.00
23229;BME280;11783;50.350;6.576;2023-02-02T04:20:10;96736.59;;;4.47;100.00
23229;BME280;11783;50.350;6.576;2023-02-02T04:22:35;96741.47;;;4.50;100.00
23229;BME280;11783;50.350;6.576;2023-02-02T04:25:04;96741.88;;;4.53;100.00
23229;BME280;11783;50.350;6.576;2023-02-02T04:27:29;96742.50;;;4.55;100.00
23229;BME280;11783;50.350;6.576;2023-02-02T04:29:57;96757.09;;;4.58;100.00
23229;BME280;11783;50.350;6.576;2023-02-02T04:32:26;96751.22;;;4.56;100.00
23229;BME280;11783;50.350;6.576;2023-02-02T04:34:51;96752.84;;;4.57;100.00
23229;BME280;11783;50.350;6.576;2023-02-02T04:37:17;96755.03;;;4.53;100.00
23229;BME280;11783;50.350;6.576;2023-02-02T04:39:49;96752.22;;;4.55;100.00
23229;BME280;11783;50.350;6.576;2023-02-02T04:42:17;96762.56;;;4.56;100.00
23229;BME280;11783;50.350;6.576;2023-02-02T04:44:43;96767.63;;;4.58;100.00
23229;BME280;11783;50.350;6.576;2023-02-02T04:47:10;96776.34;;;4.59;100.00
23229;BME280;11783;50.350;6.576;2023-02-02T04:49:35;96775.31;;;4.60;100.00
23229;BME280;11783;50.350;6.576;2023-02-02T04:52:04;96780.41;;;4.61;100.00
23229;BME280;11783;50.350;6.576;2023-02-02T04:54:32;96774.50;;;4.59;100.00
23229;BME280;11783;50.350;6.576;2023-02-02T04:57:00;96775.94;;;4.62;100.00
23229;BME280;11783;50.350;6.576;2023-02-02T04:59:29;96782.41;;;4.59;100.00
23229;BME280;11783;50.350;6.576;2023-02-02T05:01:58;96780.00;;;4.64;100.00
23229;BME280;11783;50.350;6.576;2023-02-02T05:04:24;96778.19;;;4.65;100.00
23229;BME280;11783;50.350;6.576;2023-02-02T05:06:49;96764.38;;;4.56;100.00
23229;BME280;11783;50.350;6.576;2023-02-02T05:09:18;96775.13;;;4.61;100.00
23229;BME280;11783;50.350;6.576;2023-02-02T05:11:43;96772.69;;;4.60;100.00
23229;BME280;11783;50.350;6.576;2023-02-02T05:14:09;96779.16;;;4.57;100.00
23229;BME280;11783;50.350;6.576;2023-02-02T05:16:34;96773.91;;;4.57;100.00
23229;BME280;11783;50.350;6.576;2023-02-02T05:19:04;96770.06;;;4.60;100.00
23229;BME280;11783;50.350;6.576;2023-02-02T05:21:32;96770.06;;;4.60;100.00
23229;BME280;11783;50.350;6.576;2023-02-02T05:24:00;96766.00;;;4.57;100.00
23229;BME280;11783;50.350;6.576;2023-02-02T05:26:30;96774.91;;;4.56;100.00
23229;BME280;11783;50.350;6.576;2023-02-02T05:28:56;96769.03;;;4.54;100.00
23229;BME280;11783;50.350;6.576;2023-02-02T05:31:24;96765.78;;;4.52;100.00
23229;BME280;11783;50.350;6.576;2023-02-02T05:33:49;96787.44;;;4.54;100.00
23229;BME280;11783;50.350;6.576;2023-02-02T05:36:17;96778.94;;;4.52;100.00
23229;BME280;11783;50.350;6.576;2023-02-02T05:38:43;96788.44;;;4.53;100.00
23229;BME280;11783;50.350;6.576;2023-02-02T05:41:08;96787.44;;;4.54;100.00
23229;BME280;11783;50.350;6.576;2023-02-02T05:43:34;96802.44;;;4.53;100.00
23229;BME280;11783;50.350;6.576;2023-02-02T05:45:59;96796.97;;;4.55;100.00
23229;BME280;11783;50.350;6.576;2023-02-02T05:48:25;96801.22;;;4.56;100.00
23229;BME280;11783;50.350;6.576;2023-02-02T05:51:14;96786.22;;;4.50;100.00
23229;BME280;11783;50.350;6.576;2023-02-02T05:53:40;96792.72;;;4.54;100.00
23229;BME280;11783;50.350;6.576;2023-02-02T05:56:06;96781.56;;;4.52;100.00
23229;BME280;11783;50.350;6.576;2023-02-02T05:58:31;96781.94;;;4.49;100.00
23229;BME280;11783;50.350;6.576;2023-02-02T06:00:57;96788.84;;;4.50;100.00
23229;BME280;11783;50.350;6.576;2023-02-02T06:03:22;96783.97;;;4.47;100.00
23229;BME280;11783;50.350;6.576;2023-02-02T06:05:48;96784.78;;;4.47;100.00
23229;BME280;11783;50.350;6.576;2023-02-02T06:08:13;96774.59;;;4.44;100.00
23229;BME280;11783;50.350;6.576;2023-02-02T06:10:40;96781.69;;;4.44;100.00
23229;BME280;11783;50.350;6.576;2023-02-02T06:13:06;96780.06;;;4.43;100.00
23229;BME280;11783;50.350;6.576;2023-02-02T06:15:31;96775.59;;;4.43;100.00
23229;BME280;11783;50.350;6.576;2023-02-02T06:17:58;96785.13;;;4.44;100.00
23229;BME280;11783;50.350;6.576;2023-02-02T06:20:24;96783.31;;;4.45;100.00
23229;BME280;11783;50.350;6.576;2023-02-02T06:22:52;96776.00;;;4.40;100.00
23229;BME280;11783;50.350;6.576;2023-02-02T06:25:18;96787.34;;;4.41;100.00
23229;BME280;11783;50.350;6.576;2023-02-02T06:27:43;96789.97;;;4.41;100.00
23229;BME280;11783;50.350;6.576;2023-02-02T06:30:11;96782.06;;;4.41;100.00
23229;BME280;11783;50.350;6.576;2023-02-02T06:32:37;96786.94;;;4.44;100.00
23229;BME280;11783;50.350;6.576;2023-02-02T06:35:03;96782.06;;;4.41;100.00
23229;BME280;11783;50.350;6.576;2023-02-02T06:37:29;96792.59;;;4.41;100.00
23229;BME280;11783;50.350;6.576;2023-02-02T06:39:55;96799.28;;;4.43;100.00
23229;BME280;11783;50.350;6.576;2023-02-02T06:42:20;96793.03;;;4.44;100.00
23229;BME280;11783;50.350;6.576;2023-02-02T06:44:46;96787.75;;;4.44;100.00
23229;BME280;11783;50.350;6.576;2023-02-02T06:47:14;96796.47;;;4.45;100.00
23229;BME280;11783;50.350;6.576;2023-02-02T06:49:39;96797.13;;;4.47;100.00
23229;BME280;11783;50.350;6.576;2023-02-02T06:52:06;96811.25;;;4.46;100.00
23229;BME280;11783;50.350;6.576;2023-02-02T06:54:31;96810.91;;;4.49;100.00
23229;BME280;11783;50.350;6.576;2023-02-02T06:56:57;96824.25;;;4.47;100.00
23229;BME280;11783;50.350;6.576;2023-02-02T06:59:22;96833.78;;;4.48;100.00
23229;BME280;11783;50.350;6.576;2023-02-02T07:01:50;96819.34;;;4.44;100.00
23229;BME280;11783;50.350;6.576;2023-02-02T07:04:16;96841.66;;;4.48;100.00
23229;BME280;11783;50.350;6.576;2023-02-02T07:06:45;96844.13;;;4.50;100.00
23229;BME280;11783;50.350;6.576;2023-02-02T07:09:10;96848.56;;;4.49;100.00
23229;BME280;11783;50.350;6.576;2023-02-02T07:11:36;96849.19;;;4.51;100.00
23229;BME280;11783;50.350;6.576;2023-02-02T07:14:01;96866.03;;;4.57;100.00
23229;BME280;11783;50.350;6.576;2023-02-02T07:16:28;96848.19;;;4.52;100.00
23229;BME280;11783;50.350;6.576;2023-02-02T07:18:53;96853.00;;;4.49;100.00
23229;BME280;11783;50.350;6.576;2023-02-02T07:21:23;96852.81;;;4.50;100.00
23229;BME280;11783;50.350;6.576;2023-02-02T07:23:52;96859.09;;;4.49;100.00
23229;BME280;11783;50.350;6.576;2023-02-02T07:26:18;96848.19;;;4.52;100.00
23229;BME280;11783;50.350;6.576;2023-02-02T07:28:44;96847.19;;;4.53;100.00
23229;BME280;11783;50.350;6.576;2023-02-02T07:31:26;96850.00;;;4.52;100.00
23229;BME280;11783;50.350;6.576;2023-02-02T07:33:52;96845.13;;;4.49;100.00
23229;BME280;11783;50.350;6.576;2023-02-02T07:36:19;96839.28;;;4.53;100.00
23229;BME280;11783;50.350;6.576;2023-02-02T07:38:46;96851.63;;;4.53;100.00
23229;BME280;11783;50.350;6.576;2023-02-02T07:41:13;96849.44;;;4.56;100.00
23229;BME280;11783;50.350;6.576;2023-02-02T07:43:38;96849.63;;;4.55;100.00
23229;BME280;11783;50.350;6.576;2023-02-02T07:46:05;96850.00;;;4.52;100.00
23229;BME280;11783;50.350;6.576;2023-02-02T07:48:34;96867.41;;;4.53;100.00
23229;BME280;11783;50.350;6.576;2023-02-02T07:51:02;96859.53;;;4.53;100.00
23229;BME280;11783;50.350;6.576;2023-02-02T07:53:28;96866.22;;;4.55;100.00
23229;BME280;11783;50.350;6.576;2023-02-02T07:56:25;96873.69;;;4.52;100.00
23229;BME280;11783;50.350;6.576;2023-02-02T07:58:54;96881.41;;;4.53;100.00
23229;BME280;11783;50.350;6.576;2023-02-02T08:01:20;96884.84;;;4.54;100.00
23229;BME280;11783;50.350;6.576;2023-02-02T08:03:47;96883.59;;;4.50;100.00
23229;BME280;11783;50.350;6.576;2023-02-02T08:06:16;96882.59;;;4.51;100.00
23229;BME280;11783;50.350;6.576;2023-02-02T08:08:46;96881.59;;;4.52;100.00
23229;BME280;11783;50.350;6.576;2023-02-02T08:11:13;96874.50;;;4.52;100.00
23229;BME280;11783;50.350;6.576;2023-02-02T08:13:39;96872.06;;;4.51;100.00
23229;BME280;11783;50.350;6.576;2023-02-02T08:16:06;96868.22;;;4.53;100.00
23229;BME280;11783;50.350;6.576;2023-02-02T08:18:33;96866.41;;;4.54;100.00
23229;BME280;11783;50.350;6.576;2023-02-02T08:21:00;96869.88;;;4.54;100.00
23229;BME280;11783;50.350;6.576;2023-02-02T08:23:26;96866.41;;;4.54;100.00
23229;BME280;11783;50.350;6.576;2023-02-02T08:25:52;96861.59;;;4.57;100.00
23229;BME280;11783;50.350;6.576;2023-02-02T08:28:18;96875.75;;;4.56;100.00
23229;BME280;11783;50.350;6.576;2023-02-02T08:30:45;96863.16;;;4.52;100.00
23229;BME280;11783;50.350;6.576;2023-02-02T08:33:13;96863.34;;;4.50;100.00
23229;BME280;11783;50.350;6.576;2023-02-02T08:35:43;96864.34;;;4.49;100.00
23229;BME280;11783;50.350;6.576;2023-02-02T08:38:08;96870.44;;;4.50;100.00
23229;BME280;11783;50.350;6.576;2023-02-02T08:40:34;96872.88;;;4.51;100.00
23229;BME280;11783;50.350;6.576;2023-02-02T08:42:59;96881.16;;;4.48;100.00
23229;BME280;11783;50.350;6.576;2023-02-02T08:45:25;96888.47;;;4.53;100.00
23229;BME280;11783;50.350;6.576;2023-02-02T08:47:51;96891.94;;;4.53;100.00
23229;BME280;11783;50.350;6.576;2023-02-02T08:50:17;96893.94;;;4.51;100.00
23229;BME280;11783;50.350;6.576;2023-02-02T08:52:43;96909.16;;;4.56;100.00
23229;BME280;11783;50.350;6.576;2023-02-02T08:55:08;96909.16;;;4.56;100.00
23229;BME280;11783;50.350;6.576;2023-02-02T08:57:34;96913.41;;;4.57;100.00
23229;BME280;11783;50.350;6.576;2023-02-02T09:00:04;96918.69;;;4.57;100.00
23229;BME280;11783;50.350;6.576;2023-02-02T09:02:30;96923.13;;;4.56;100.00
23229;BME280;11783;50.350;6.576;2023-02-02T09:04:56;96922.31;;;4.56;100.00
23229;BME280;11783;50.350;6.576;2023-02-02T09:07:24;96933.84;;;4.55;100.00
23229;BME280;11783;50.350;6.576;2023-02-02T09:09:50;96912.59;;;4.56;100.00
23229;BME280;11783;50.350;6.576;2023-02-02T09:12:19;96913.41;;;4.57;100.00
23229;BME280;11783;50.350;6.576;2023-02-02T09:14:45;96915.66;;;4.60;100.00
23229;BME280;11783;50.350;6.576;2023-02-02T09:17:10;96922.84;;;4.66;100.00
23229;BME280;11783;50.350;6.576;2023-02-02T09:19:38;96929.34;;;4.70;100.00
23229;BME280;11783;50.350;6.576;2023-02-02T09:22:07;96925.81;;;4.63;100.00
23229;BME280;11783;50.350;6.576;2023-02-02T09:24:35;96924.09;;;4.70;100.00
23229;BME280;11783;50.350;6.576;2023-02-02T09:27:00;96922.63;;;4.68;100.00
23229;BME280;11783;50.350;6.576;2023-02-02T09:29:28;96933.41;;;4.73;100.00
23229;BME280;11783;50.350;6.576;2023-02-02T09:31:54;96939.72;;;4.78;100.00
23229;BME280;11783;50.350;6.576;2023-02-02T09:34:22;96943.38;;;4.77;100.00
23229;BME280;11783;50.350;6.576;2023-02-02T09:36:50;96944.00;;;4.79;100.00
23229;BME280;11783;50.350;6.576;2023-02-02T09:39:16;96942.38;;;4.78;100.00
23229;BME280;11783;50.350;6.576;2023-02-02T09:52:29;96957.44;;;4.84;100.00
23229;BME280;11783;50.350;6.576;2023-02-02T09:55:02;96967.00;;;4.92;100.00
23229;BME280;11783;50.350;6.576;2023-02-02T09:57:34;96964.19;;;4.94;100.00
23229;BME280;11783;50.350;6.576;2023-02-02T10:00:05;96969.59;;;4.85;100.00
23229;BME280;11783;50.350;6.576;2023-02-02T10:02:41;96975.22;;;4.82;100.00
23229;BME280;11783;50.350;6.576;2023-02-02T10:05:17;96974.09;;;4.92;100.00
23229;BME280;11783;50.350;6.576;2023-02-02T10:07:48;96988.72;;;4.94;100.00
23229;BME280;11783;50.350;6.576;2023-02-02T10:10:20;96990.16;;;4.97;100.00
23229;BME280;11783;50.350;6.576;2023-02-02T10:13:19;96994.41;;;4.98;100.00
23229;BME280;11783;50.350;6.576;2023-02-02T10:15:58;96993.22;;;5.00;100.00
23229;BME280;11783;50.350;6.576;2023-02-02T10:18:31;96995.13;;;5.06;100.00
23229;BME280;11783;50.350;6.576;2023-02-02T10:21:00;97000.19;;;5.08;100.00
23229;BME280;11783;50.350;6.576;2023-02-02T10:23:41;97003.88;;;5.13;100.00
23229;BME280;11783;50.350;6.576;2023-02-02T10:26:44;97010.59;;;5.16;100.00
23229;BME280;11783;50.350;6.576;2023-02-02T10:32:24;97029.31;;;5.21;100.00
23229;BME280;11783;50.350;6.576;2023-02-02T10:35:28;97041.66;;;5.21;100.00
23229;BME280;11783;50.350;6.576;2023-02-02T10:38:26;97035.53;;;5.20;100.00
23229;BME280;11783;50.350;6.576;2023-02-02T10:43:46;97037.19;;;5.21;100.00
23229;BME280;11783;50.350;6.576;2023-02-02T10:48:45;97036.81;;;5.24;100.00
23229;BME280;11783;50.350;6.576;2023-02-02T10:51:26;97037.88;;;5.30;100.00
23229;BME280;11783;50.350;6.576;2023-02-02T10:53:57;97043.16;;;5.30;100.00
23229;BME280;11783;50.350;6.576;2023-02-02T10:56:37;97034.66;;;5.34;100.00
23229;BME280;11783;50.350;6.576;2023-02-02T10:59:16;97041.19;;;5.38;100.00
23229;BME280;11783;50.350;6.576;2023-02-02T11:01:43;97036.72;;;5.39;100.00
23229;BME280;11783;50.350;6.576;2023-02-02T11:04:10;97043.66;;;5.40;100.00
23229;BME280;11783;50.350;6.576;2023-02-02T11:06:57;97033.53;;;5.43;100.00
23229;BME280;11783;50.350;6.576;2023-02-02T11:09:29;97036.16;;;5.43;100.00
23229;BME280;11783;50.350;6.576;2023-02-02T11:12:02;97030.72;;;5.45;100.00
23229;BME280;11783;50.350;6.576;2023-02-02T11:14:36;97030.50;;;5.46;100.00
23229;BME280;11783;50.350;6.576;2023-02-02T11:17:05;97033.97;;;5.47;100.00
23229;BME280;11783;50.350;6.576;2023-02-02T11:19:33;97026.69;;;5.49;100.00
23229;BME280;11783;50.350;6.576;2023-02-02T11:22:02;97023.03;;;5.50;100.00
23229;BME280;11783;50.350;6.576;2023-02-02T11:27:04;97030.56;;;5.53;100.00
23229;BME280;11783;50.350;6.576;2023-02-02T11:29:32;97026.53;;;5.57;100.00
23229;BME280;11783;50.350;6.576;2023-02-02T11:35:21;97029.50;;;5.47;100.00
23229;BME280;11783;50.350;6.576;2023-02-02T11:37:56;97025.66;;;5.50;100.00
23229;BME280;11783;50.350;6.576;2023-02-02T11:40:26;97019.59;;;5.50;100.00
23229;BME280;11783;50.350;6.576;2023-02-02T11:42:53;97017.53;;;5.45;100.00
23229;BME280;11783;50.350;6.576;2023-02-02T11:45:34;97016.31;;;5.47;100.00
23229;BME280;11783;50.350;6.576;2023-02-02T11:48:06;97014.31;;;5.50;100.00
23229;BME280;11783;50.350;6.576;2023-02-02T11:50:34;97023.25;;;5.55;100.00
23229;BME280;11783;50.350;6.576;2023-02-02T11:53:00;97030.56;;;5.53;100.00
23229;BME280;11783;50.350;6.576;2023-02-02T11:55:28;97022.44;;;5.55;100.00
23229;BME280;11783;50.350;6.576;2023-02-02T12:01:02;97020.00;;;5.53;100.00
23229;BME280;11783;50.350;6.576;2023-02-02T12:03:37;97022.91;;;5.58;100.00
23229;BME280;11783;50.350;6.576;2023-02-02T12:06:22;97016.97;;;5.56;100.00
23229;BME280;11783;50.350;6.576;2023-02-02T12:08:48;97010.53;;;5.59;100.00
23229;BME280;11783;50.350;6.576;2023-02-02T12:16:46;97019.69;;;5.63;100.00
23229;BME280;11783;50.350;6.576;2023-02-02T12:21:53;96992.91;;;5.59;100.00
23229;BME280;11783;50.350;6.576;2023-02-02T12:24:35;96990.41;;;5.58;100.00
23229;BME280;11783;50.350;6.576;2023-02-02T12:27:34;96977.19;;;5.51;100.00
23229;BME280;11783;50.350;6.576;2023-02-02T12:30:19;96970.31;;;5.50;100.00
23229;BME280;11783;50.350;6.576;2023-02-02T12:39:01;96970.97;;;5.59;100.00
23229;BME280;11783;50.350;6.576;2023-02-02T12:44:29;96972.66;;;5.73;100.00
23229;BME280;11783;50.350;6.576;2023-02-02T12:50:23;96975.31;;;5.73;100.00
23229;BME280;11783;50.350;6.576;2023-02-02T13:03:45;96957.91;;;5.78;100.00
23229;BME280;11783;50.350;6.576;2023-02-02T13:09:05;96956.69;;;5.81;100.00
23229;BME280;11783;50.350;6.576;2023-02-02T13:12:07;96945.75;;;5.84;100.00
23229;BME280;11783;50.350;6.576;2023-02-02T13:14:54;96942.97;;;5.92;100.00
23229;BME280;11783;50.350;6.576;2023-02-02T13:20:40;96952.16;;;5.96;100.00
23229;BME280;11783;50.350;6.576;2023-02-02T13:23:44;96955.97;;;5.94;100.00
23229;BME280;11783;50.350;6.576;2023-02-02T13:26:17;96955.97;;;5.94;100.00
23229;BME280;11783;50.350;6.576;2023-02-02T13:32:10;96960.06;;;5.96;100.00
23229;BME280;11783;50.350;6.576;2023-02-02T13:34:22;96965.50;;;5.95;100.00
23229;BME280;11783;50.350;6.576;2023-02-02T13:36:58;96975.91;;;5.96;100.00
23229;BME280;11783;50.350;6.576;2023-02-02T13:39:37;96968.59;;;5.98;100.00
23229;BME280;11783;50.350;6.576;2023-02-02T13:42:06;96978.34;;;6.04;100.00
23229;BME280;11783;50.350;6.576;2023-02-02T13:44:45;96974.91;;;6.04;100.00
23229;BME280;11783;50.350;6.576;2023-02-02T13:47:21;96978.16;;;6.06;100.00
23229;BME280;11783;50.350;6.576;2023-02-02T13:49:52;96975.31;;;6.07;100.00
23229;BME280;11783;50.350;6.576;2023-02-02T13:52:36;96977.16;;;6.07;100.00
23229;BME280;11783;50.350;6.576;2023-02-02T14:03:37;97000.69;;;6.02;100.00
23229;BME280;11783;50.350;6.576;2023-02-02T14:06:17;97002.69;;;6.00;100.00
23229;BME280;11783;50.350;6.576;2023-02-02T14:08:49;97015.06;;;5.99;100.00
23229;BME280;11783;50.350;6.576;2023-02-02T14:11:35;97012.03;;;6.02;100.00
23229;BME280;11783;50.350;6.576;2023-02-02T14:14:14;97016.31;;;6.03;100.00
23229;BME280;11783;50.350;6.576;2023-02-02T14:17:00;97002.50;;;6.01;100.00
23229;BME280;11783;50.350;6.576;2023-02-02T14:45:45;97027.09;;;6.08;100.00
23229;BME280;11783;50.350;6.576;2023-02-02T14:48:25;97031.78;;;6.13;100.00
23229;BME280;11783;50.350;6.576;2023-02-02T14:50:58;97037.25;;;6.12;100.00
23229;BME280;11783;50.350;6.576;2023-02-02T14:53:33;97031.34;;;6.10;100.00
23229;BME280;11783;50.350;6.576;2023-02-02T14:56:09;97030.97;;;6.13;100.00
23229;BME280;11783;50.350;6.576;2023-02-02T14:58:38;97037.44;;;6.10;100.00
23229;BME280;11783;50.350;6.576;2023-02-02T15:01:12;97035.81;;;6.09;100.00
23229;BME280;11783;50.350;6.576;2023-02-02T15:06:40;97046.19;;;6.11;100.00
23229;BME280;11783;50.350;6.576;2023-02-02T15:15:13;97051.47;;;6.11;100.00
23229;BME280;11783;50.350;6.576;2023-02-02T15:25:48;97069.72;;;6.05;100.00
23229;BME280;11783;50.350;6.576;2023-02-02T15:31:13;97067.88;;;6.06;100.00
23229;BME280;11783;50.350;6.576;2023-02-02T15:33:43;97069.28;;;6.02;100.00
23229;BME280;11783;50.350;6.576;2023-02-02T15:36:15;97073.13;;;5.99;100.00
23229;BME280;11783;50.350;6.576;2023-02-02T15:38:43;97071.50;;;5.98;100.00
23229;BME280;11783;50.350;6.576;2023-02-02T15:43:57;97088.53;;;5.96;100.00
23229;BME280;11783;50.350;6.576;2023-02-02T15:46:26;97087.88;;;5.94;100.00